createdAt,value
2018-08-07T00:00:03.982Z,119
2018-08-07T00:05:03.984Z,119
2018-08-07T00:10:03.985Z,119
2018-08-07T00:15:03.989Z,119
2018-08-07T00:20:03.988Z,119
2018-08-07T00:25:03.997Z,119
2018-08-07T00:30:04.001Z,119
2018-08-07T00:35:04.005Z,119
2018-08-07T00:40:04.004Z,119
2018-08-07T00:45:04.011Z,119
2018-08-07T00:50:04.110Z,119
2018-08-07T00:55:04.018Z,119
2018-08-07T01:00:04.014Z,119
2018-08-07T01:05:04.019Z,119
2018-08-07T01:10:04.023Z,119
2018-08-07T01:15:04.026Z,119
2018-08-07T01:20:04.020Z,119
2018-08-07T01:25:04.025Z,119
2018-08-07T01:30:04.028Z,119
2018-08-07T01:35:04.030Z,119
2018-08-07T01:40:04.035Z,119
2018-08-07T01:45:04.039Z,119
2018-08-07T01:50:04.043Z,119
2018-08-07T01:55:04.042Z,119
2018-08-07T02:00:04.046Z,119
2018-08-07T02:05:04.048Z,119
2018-08-07T02:10:04.053Z,119
2018-08-07T02:15:04.055Z,119
2018-08-07T02:20:04.057Z,119
2018-08-07T02:25:04.061Z,119
2018-08-07T02:30:04.062Z,119
2018-08-07T02:35:04.064Z,119
2018-08-07T02:40:04.071Z,119
2018-08-07T02:45:04.069Z,119
2018-08-07T02:50:04.085Z,119
2018-08-07T02:55:04.088Z,119
2018-08-07T03:00:04.077Z,119
2018-08-07T03:05:04.081Z,119
2018-08-07T03:10:04.092Z,119
2018-08-07T03:15:04.100Z,119
2018-08-07T03:20:04.090Z,119
2018-08-07T03:25:04.100Z,119
2018-08-07T03:30:04.095Z,119
2018-08-07T03:35:04.094Z,119
2018-08-07T03:40:04.097Z,119
2018-08-07T03:45:04.104Z,119
2018-08-07T03:50:04.112Z,119
2018-08-07T03:55:04.110Z,119
2018-08-07T04:00:04.109Z,119
2018-08-07T04:05:04.340Z,119
2018-08-07T04:10:04.121Z,119
2018-08-07T04:15:04.119Z,119
2018-08-07T04:20:04.130Z,119
2018-08-07T04:25:04.126Z,119
2018-08-07T04:30:04.129Z,119
2018-08-07T04:35:04.135Z,119
2018-08-07T04:40:04.137Z,119
2018-08-07T04:45:04.134Z,119
2018-08-07T04:50:04.134Z,119
2018-08-07T04:55:04.143Z,119
2018-08-07T05:00:04.147Z,119
2018-08-07T05:05:04.146Z,119
2018-08-07T05:10:04.152Z,119
2018-08-07T05:15:04.153Z,119
2018-08-07T05:20:04.156Z,119
2018-08-07T05:25:04.160Z,119
2018-08-07T05:30:04.205Z,119
2018-08-07T05:35:04.161Z,119
2018-08-07T05:40:04.169Z,119
2018-08-07T05:45:04.168Z,119
2018-08-07T05:50:04.371Z,119
2018-08-07T05:55:04.293Z,119
2018-08-07T06:00:04.179Z,119
2018-08-07T06:05:04.183Z,119
2018-08-07T06:10:04.183Z,119
2018-08-07T06:15:04.204Z,119
2018-08-07T06:20:04.182Z,119
2018-08-07T06:25:04.196Z,119
2018-08-07T06:30:04.207Z,119
2018-08-07T06:35:04.212Z,119
2018-08-07T06:40:04.200Z,119
2018-08-07T06:45:04.225Z,119
2018-08-07T06:50:04.259Z,119
2018-08-07T06:55:04.201Z,119
2018-08-07T07:00:04.209Z,119
2018-08-07T07:05:04.207Z,119
2018-08-07T07:10:04.211Z,119
2018-08-07T07:15:04.221Z,119
2018-08-07T07:20:04.236Z,114.91
2018-08-07T07:25:04.224Z,100.95
2018-08-07T07:30:04.225Z,111.56
2018-08-07T07:35:04.226Z,71.05
2018-08-07T07:40:04.227Z,85.03
2018-08-07T07:45:04.229Z,54.81
2018-08-07T07:50:04.239Z,19.62
2018-08-07T07:55:04.239Z,13.07
2018-08-07T08:00:04.243Z,-2.23
2018-08-07T08:05:04.311Z,-6
2018-08-07T08:10:04.248Z,-6
2018-08-07T08:15:04.245Z,-6
2018-08-07T08:20:04.273Z,-6
2018-08-07T08:25:04.254Z,-6
2018-08-07T08:30:04.631Z,-6
2018-08-07T08:35:04.374Z,-6
2018-08-07T08:40:04.266Z,-6
2018-08-07T08:45:04.272Z,-6
2018-08-07T08:50:04.262Z,-6
2018-08-07T08:55:04.282Z,-6
2018-08-07T09:00:04.273Z,-6
2018-08-07T09:05:04.276Z,-6
2018-08-07T09:10:04.289Z,-6
2018-08-07T09:15:04.282Z,-6
2018-08-07T09:20:04.290Z,-6
2018-08-07T09:25:04.288Z,-6
2018-08-07T09:30:04.284Z,-6
2018-08-07T09:35:04.285Z,-6
2018-08-07T09:40:04.461Z,-6
2018-08-07T09:45:04.295Z,-6
2018-08-07T09:50:04.308Z,-6
2018-08-07T09:55:04.303Z,-6
2018-08-07T10:00:04.304Z,-6
2018-08-07T10:05:04.425Z,-6
2018-08-07T10:10:04.313Z,-6
2018-08-07T10:15:04.310Z,-6
2018-08-07T10:20:04.319Z,-6
2018-08-07T10:25:04.315Z,-6
2018-08-07T10:30:04.317Z,-6
2018-08-07T10:35:04.452Z,-6
2018-08-07T10:40:04.324Z,-6
2018-08-07T10:45:04.327Z,-6
2018-08-07T10:50:04.330Z,-6
2018-08-07T10:55:04.337Z,-6
2018-08-07T11:00:04.338Z,-6
2018-08-07T11:05:04.339Z,-6
2018-08-07T11:10:04.345Z,-6
2018-08-07T11:15:04.344Z,-6
2018-08-07T11:20:04.346Z,-6
2018-08-07T11:25:04.356Z,-6
2018-08-07T11:30:04.615Z,-6
2018-08-07T11:35:04.356Z,-6
2018-08-07T11:40:04.365Z,-6
2018-08-07T11:45:04.359Z,-6
2018-08-07T11:50:04.368Z,-6
2018-08-07T11:55:04.369Z,-6
2018-08-07T12:00:04.369Z,-6
2018-08-07T12:05:04.381Z,-6
2018-08-07T12:10:04.377Z,-6
2018-08-07T12:15:04.376Z,-6
2018-08-07T12:20:04.378Z,-6
2018-08-07T12:25:04.391Z,-6
2018-08-07T12:30:04.387Z,-6
2018-08-07T12:35:04.503Z,-6
2018-08-07T12:40:04.394Z,-6
2018-08-07T12:45:04.399Z,-6
2018-08-07T12:50:04.396Z,-6
2018-08-07T12:55:04.406Z,-6
2018-08-07T13:00:04.399Z,-6
2018-08-07T13:05:04.409Z,-6
2018-08-07T13:10:04.410Z,-6
2018-08-07T13:15:04.409Z,-6
2018-08-07T13:20:04.409Z,-6
2018-08-07T13:25:04.412Z,-6
2018-08-07T13:30:04.417Z,-6
2018-08-07T13:35:03.421Z,-6
2018-08-07T13:40:03.423Z,-6
2018-08-07T13:45:03.426Z,-6
2018-08-07T13:50:03.428Z,-6
2018-08-07T13:55:03.433Z,-6
2018-08-07T14:00:03.430Z,-6
2018-08-07T14:05:03.456Z,-6
2018-08-07T14:10:03.441Z,-6
2018-08-07T14:15:03.444Z,-6
2018-08-07T14:20:03.445Z,-6
2018-08-07T14:25:03.446Z,-6
2018-08-07T14:30:03.453Z,-6
2018-08-07T14:35:03.453Z,-6
2018-08-07T14:40:03.455Z,-6
2018-08-07T14:45:03.455Z,-6
2018-08-07T14:50:03.459Z,-6
2018-08-07T14:55:03.459Z,-6
2018-08-07T15:00:03.475Z,-6
2018-08-07T15:05:03.468Z,-6
2018-08-07T15:10:03.480Z,-6
2018-08-07T15:15:03.521Z,-6
2018-08-07T15:20:03.652Z,-6
2018-08-07T15:25:03.482Z,-6
2018-08-07T15:30:03.485Z,-6
2018-08-07T15:35:03.492Z,-6
2018-08-07T15:40:03.494Z,-6
2018-08-07T15:45:03.590Z,-6
2018-08-07T15:50:03.503Z,-6
2018-08-07T15:55:03.503Z,-6
2018-08-07T16:00:03.503Z,-6
2018-08-07T16:05:03.503Z,-6
2018-08-07T16:10:03.504Z,-6
2018-08-07T16:15:03.511Z,-6
2018-08-07T16:20:03.509Z,-6
2018-08-07T16:25:03.523Z,-6
2018-08-07T16:30:03.720Z,-6
2018-08-07T16:35:03.515Z,-6
2018-08-07T16:40:03.523Z,-6
2018-08-07T16:45:03.537Z,-6
2018-08-07T16:50:03.521Z,-6
2018-08-07T16:55:03.532Z,-6
2018-08-07T17:00:03.526Z,-6
2018-08-07T17:05:03.535Z,-6
2018-08-07T17:10:03.530Z,-6
2018-08-07T17:15:03.535Z,-6
2018-08-07T17:20:03.540Z,-6
2018-08-07T17:25:03.547Z,-6
2018-08-07T17:30:03.545Z,-6
2018-08-07T17:35:03.547Z,-6
2018-08-07T17:40:03.547Z,-6
2018-08-07T17:45:03.560Z,-6
2018-08-07T17:50:03.554Z,-6
2018-08-07T17:55:03.559Z,-6
2018-08-07T18:00:03.564Z,-6
2018-08-07T18:05:03.573Z,-6
2018-08-07T18:10:03.582Z,-6
2018-08-07T18:15:03.573Z,-6
2018-08-07T18:20:03.574Z,-6
2018-08-07T18:25:03.591Z,-6
2018-08-07T18:30:03.580Z,-6
2018-08-07T18:35:03.577Z,-6
2018-08-07T18:40:03.590Z,-6
2018-08-07T18:45:03.590Z,-6
2018-08-07T18:50:03.592Z,-6
2018-08-07T18:55:03.618Z,-6
2018-08-07T19:00:03.592Z,-6
2018-08-07T19:05:03.597Z,-6
2018-08-07T19:10:03.616Z,-6
2018-08-07T19:15:03.604Z,-6
2018-08-07T19:20:03.606Z,-6
2018-08-07T19:25:03.624Z,-6
2018-08-07T19:30:03.612Z,-6
2018-08-07T19:35:03.616Z,-6
2018-08-07T19:40:03.636Z,-6
2018-08-07T19:45:03.618Z,-6
2018-08-07T19:50:03.624Z,-6
2018-08-07T19:55:03.631Z,-6
2018-08-07T20:00:03.635Z,-6
2018-08-07T20:05:03.632Z,-6
2018-08-07T20:10:03.641Z,-6
2018-08-07T20:15:03.633Z,-6
2018-08-07T20:20:03.638Z,-6
2018-08-07T20:25:03.652Z,-6
2018-08-07T20:30:03.641Z,-6
2018-08-07T20:35:03.643Z,-6
2018-08-07T20:40:03.656Z,-5.03
2018-08-07T20:45:03.657Z,4.5
2018-08-07T20:50:03.654Z,16.05
2018-08-07T20:55:03.671Z,21.77
2018-08-07T21:00:03.663Z,30.73
2018-08-07T21:05:03.661Z,34.65
2018-08-07T21:10:03.674Z,45.03
2018-08-07T21:15:03.668Z,54.73
2018-08-07T21:20:03.665Z,67.48
2018-08-07T21:25:03.682Z,52.28
2018-08-07T21:30:03.687Z,56.98
2018-08-07T21:35:03.815Z,70.45
2018-08-07T21:40:03.708Z,68.59
2018-08-07T21:45:03.688Z,62.41
2018-08-07T21:50:03.687Z,62.49
2018-08-07T21:55:03.705Z,65.52
2018-08-07T22:00:03.691Z,68.04
2018-08-07T22:05:03.695Z,59.33
2018-08-07T22:10:03.721Z,62.92
2018-08-07T22:15:03.701Z,54.22
2018-08-07T22:20:03.703Z,58.01
2018-08-07T22:25:03.712Z,53.68
2018-08-07T22:30:03.710Z,56.49
2018-08-07T22:35:03.709Z,61.31
2018-08-07T22:40:03.720Z,54.42
2018-08-07T22:45:03.716Z,55.44
2018-08-07T22:50:03.726Z,57.27
2018-08-07T22:55:03.746Z,56.21
2018-08-07T23:00:06.535Z,59.37
2018-08-07T23:05:03.741Z,69.21
2018-08-07T23:10:03.735Z,71.53
2018-08-07T23:15:03.727Z,73.56
2018-08-07T23:20:03.739Z,80.83
2018-08-07T23:25:03.746Z,78.17
2018-08-07T23:30:03.740Z,80.64
2018-08-07T23:35:03.753Z,90.1
2018-08-07T23:40:03.755Z,95.48
2018-08-07T23:45:03.751Z,94.84
2018-08-07T23:50:03.756Z,89.37
2018-08-07T23:55:03.760Z,82.97
